Othello — LXOD — position and weather

sailwx.info

Track history (hours):
 
Tides and Currents Weather Stations Pressure Air Temp Water Temp Dewpoint Dewpoint Depression Visibility Wind Speed Wind Dir Waves Ship Positions

Othello

Last reported at 2016-Jul-25 15:31 UTC. Time now 2016-Jul-25 15:57 UTC.
Position N 32°18' W 009°20'.

Length 104 m; draft 5.6 m.

Type: Tanker. MMSI: 253279000.

Date/timePositionNaut miles runAvg speedWind from/ knotsBaromVisibWave heightAir tempDewpointWater temp
2016-Jul-25 15:31N 32°18' W 009°20'0 0.0
2016-Jul-25 14:31N 32°18' W 009°20'0 0.0
2016-Jul-25 13:04N 32°18' W 009°20'0 0.0
2016-Jul-25 12:19N 32°18' W 009°20'0 0.0
2016-Jul-25 09:22N 32°18' W 009°20'0 0.0
2016-Jul-25 08:06N 32°18' W 009°20'0 0.0
2016-Jul-25 07:32N 32°18' W 009°20'1 1.0
2016-Jul-25 06:33N 32°19' W 009°21'9 9.3
2016-Jul-25 05:33N 32°28' W 009°23'10 9.5
2016-Jul-25 04:33N 32°38' W 009°21'1110.6
2016-Jul-25 03:31N 32°47' W 009°13'1010.7
2016-Jul-25 02:33N 32°55' W 009°07'1110.8
2016-Jul-25 01:32N 33°04' W 008°59'1110.8
2016-Jul-25 00:30N 33°14' W 008°52'1010.8
2016-Jul-24 23:33N 33°22' W 008°45'1111.0
2016-Jul-24 22:33N 33°31' W 008°37'1111.0
2016-Jul-24 21:33N 33°40' W 008°30'1111.1
2016-Jul-24 20:32N 33°49' W 008°22'1111.0
2016-Jul-24 19:33N 33°57' W 008°13'1310.9
2016-Jul-24 18:21N 34°07' W 008°03'911.1
2016-Jul-24 17:33N 34°14' W 007°56'1110.8
2016-Jul-24 16:33N 34°23' W 007°48'1110.9
2016-Jul-24 15:33N 34°31' W 007°39'1210.8
2016-Jul-24 14:24N 34°41' W 007°30'910.8
2016-Jul-24 13:33N 34°47' W 007°23'1110.8
2016-Jul-24 12:29N 34°56' W 007°14'1010.9
2016-Jul-24 11:33N 35°04' W 007°06'1210.8
2016-Jul-24 10:27N 35°13' W 006°57'1211.0
2016-Jul-24 09:24N 35°23' W 006°48'1011.5
2016-Jul-24 08:33N 35°30' W 006°41'5811.2
2016-Jul-24 03:23N 35°57' W 005°37'1012.5
2016-Jul-24 02:33N 36°00' W 005°25'1111.3
2016-Jul-24 01:33N 36°04' W 005°12'11312.4
2016-Jul-23 16:25N 36°20' W 002°53'1312.5
2016-Jul-23 15:22N 36°22' W 002°37'1313.0
2016-Jul-23 14:20N 36°24' W 002°20'1012.8
2016-Jul-23 13:33N 36°28' W 002°09'2913.0
2016-Jul-23 11:17N 36°47' W 001°41'4013.3
2016-Jul-23 08:19N 37°13' W 001°04'1012.8
2016-Jul-23 07:33N 37°20' W 000°55'1313.0
2016-Jul-23 06:33N 37°28' W 000°42'2612.8
2016-Jul-23 04:33N 37°48' W 000°22'1313.2
2016-Jul-23 03:33N 37°59' W 000°13'12712.7
2016-Jul-22 17:31N 39°54' E 000°59'1211.9
2016-Jul-22 16:31N 40°06' E 000°57'1212.4
2016-Jul-22 15:33N 40°17' E 000°59'1312.7
2016-Jul-22 14:33N 40°30' E 001°03'2612.7
2016-Jul-22 12:28N 40°56' E 001°10'11 0.4
2016-Jul-21 08:30N 41°06' E 001°14'0 0.0
2016-Jul-20 19:26N 41°06' E 001°14'13 6.9
2016-Jul-20 17:31N 40°53' E 001°09'1212.3
2016-Jul-20 16:33N 40°41' E 001°08'1111.4
2016-Jul-20 15:33N 40°31' E 001°04'1211.7
2016-Jul-20 14:33N 40°19' E 001°00'1211.6
2016-Jul-20 13:33N 40°08' E 000°57'1211.9
2016-Jul-20 12:33N 39°56' E 000°54'1312.0
2016-Jul-20 11:30N 39°44' E 000°50'3711.6
2016-Jul-20 08:19N 39°08' E 000°37'2011.5
2016-Jul-20 06:33N 38°49' E 000°29'1211.6
2016-Jul-20 05:33N 38°38' E 000°24'1211.8
2016-Jul-20 04:33N 38°28' E 000°16'1711.6
2016-Jul-20 03:07N 38°14' E 000°04'711.6
2016-Jul-20 02:29N 38°08' W 000°01'1311.7
2016-Jul-20 01:23N 37°57' W 000°10'1011.5
2016-Jul-20 00:33N 37°50' W 000°17'1211.5
2016-Jul-19 23:32N 37°40' W 000°25'1111.3
2016-Jul-19 22:33N 37°31' W 000°34'1111.5
2016-Jul-19 21:33N 37°23' W 000°44'1211.8
2016-Jul-19 20:34N 37°16' W 000°55'1212.0
2016-Jul-19 19:33N 37°08' W 001°07'1212.3
2016-Jul-19 18:33N 36°60' W 001°18'1211.8
2016-Jul-19 17:31N 36°52' W 001°30'1312.4
2016-Jul-19 16:28N 36°43' W 001°42'1112.5
2016-Jul-19 15:33N 36°36' W 001°53'16511.0
2016-Jul-19 00:33N 35°57' W 005°12'6 3.0
2016-Jul-18 22:31N 35°54' W 005°18'0 0.0
2016-Jul-18 21:31N 35°54' W 005°18'0 0.0
2016-Jul-18 20:25N 35°54' W 005°18'0 0.0
2016-Jul-18 19:31N 35°54' W 005°18'1 1.4
2016-Jul-18 18:33N 35°55' W 005°19'5 5.0
2016-Jul-18 17:33N 35°58' W 005°24'19210.6
2016-Jul-17 23:33N 36°30' W 009°18'1212.4
2016-Jul-17 22:33N 36°38' W 009°29'1212.3
2016-Jul-17 21:33N 36°48' W 009°39'1312.9
2016-Jul-17 20:33N 37°01' W 009°42'1313.0
2016-Jul-17 19:33N 37°13' W 009°46'1313.4
2016-Jul-17 18:33N 37°26' W 009°49'1313.2
2016-Jul-17 17:33N 37°39' W 009°52'1313.2
2016-Jul-17 16:33N 37°52' W 009°57'1413.6
2016-Jul-17 15:33N 38°05' W 010°01'1413.6
2016-Jul-17 14:34N 38°18' W 010°05'1413.6
2016-Jul-17 13:33N 38°32' W 010°08'1313.5
2016-Jul-17 12:34N 38°45' W 010°11'1312.9
2016-Jul-17 11:34N 38°58' W 010°11'1312.8
2016-Jul-17 10:33N 39°11' W 010°11'1313.3
2016-Jul-17 09:33N 39°24' W 010°11'1312.8
2016-Jul-17 08:33N 39°37' W 010°12'1413.1
2016-Jul-17 07:31N 39°50' W 010°12'1414.4
2016-Jul-17 06:32N 40°05' W 010°12'6913.4
2016-Jul-17 01:21N 41°14' W 010°11'36412.5
2016-Jul-15 20:21N 46°56' W 007°21'3713.2
2016-Jul-15 17:33N 47°28' W 006°55'  
Track history (hours):
 
Tides and Currents Weather Stations Pressure Air Temp Water Temp Dewpoint Dewpoint Depression Visibility Wind Speed Wind Dir Waves Ship Positions

Othello

Last reported at 2016-Jul-25 15:31 UTC. Time now 2016-Jul-25 15:57 UTC.
Position N 32°18' W 009°20'.

Length 104 m; draft 5.6 m.

Type: Tanker. MMSI: 253279000.

Date/timePositionNaut miles runAvg speedWind from/ knotsBaromVisibWave heightAir tempDewpointWater temp
2016-Jul-25 15:31N 32°18' W 009°20'0 0.0
2016-Jul-25 14:31N 32°18' W 009°20'0 0.0
2016-Jul-25 13:04N 32°18' W 009°20'0 0.0
2016-Jul-25 12:19N 32°18' W 009°20'0 0.0
2016-Jul-25 09:22N 32°18' W 009°20'0 0.0
2016-Jul-25 08:06N 32°18' W 009°20'0 0.0
2016-Jul-25 07:32N 32°18' W 009°20'1 1.0
2016-Jul-25 06:33N 32°19' W 009°21'9 9.3
2016-Jul-25 05:33N 32°28' W 009°23'10 9.5
2016-Jul-25 04:33N 32°38' W 009°21'1110.6
2016-Jul-25 03:31N 32°47' W 009°13'1010.7
2016-Jul-25 02:33N 32°55' W 009°07'1110.8
2016-Jul-25 01:32N 33°04' W 008°59'1110.8
2016-Jul-25 00:30N 33°14' W 008°52'1010.8
2016-Jul-24 23:33N 33°22' W 008°45'1111.0
2016-Jul-24 22:33N 33°31' W 008°37'1111.0
2016-Jul-24 21:33N 33°40' W 008°30'1111.1
2016-Jul-24 20:32N 33°49' W 008°22'1111.0
2016-Jul-24 19:33N 33°57' W 008°13'1310.9
2016-Jul-24 18:21N 34°07' W 008°03'911.1
2016-Jul-24 17:33N 34°14' W 007°56'1110.8
2016-Jul-24 16:33N 34°23' W 007°48'1110.9
2016-Jul-24 15:33N 34°31' W 007°39'1210.8
2016-Jul-24 14:24N 34°41' W 007°30'910.8
2016-Jul-24 13:33N 34°47' W 007°23'1110.8
2016-Jul-24 12:29N 34°56' W 007°14'1010.9
2016-Jul-24 11:33N 35°04' W 007°06'1210.8
2016-Jul-24 10:27N 35°13' W 006°57'1211.0
2016-Jul-24 09:24N 35°23' W 006°48'1011.5
2016-Jul-24 08:33N 35°30' W 006°41'5811.2
2016-Jul-24 03:23N 35°57' W 005°37'1012.5
2016-Jul-24 02:33N 36°00' W 005°25'1111.3
2016-Jul-24 01:33N 36°04' W 005°12'11312.4
2016-Jul-23 16:25N 36°20' W 002°53'1312.5
2016-Jul-23 15:22N 36°22' W 002°37'1313.0
2016-Jul-23 14:20N 36°24' W 002°20'1012.8
2016-Jul-23 13:33N 36°28' W 002°09'2913.0
2016-Jul-23 11:17N 36°47' W 001°41'4013.3
2016-Jul-23 08:19N 37°13' W 001°04'1012.8
2016-Jul-23 07:33N 37°20' W 000°55'1313.0
2016-Jul-23 06:33N 37°28' W 000°42'2612.8
2016-Jul-23 04:33N 37°48' W 000°22'1313.2
2016-Jul-23 03:33N 37°59' W 000°13'12712.7
2016-Jul-22 17:31N 39°54' E 000°59'1211.9
2016-Jul-22 16:31N 40°06' E 000°57'1212.4
2016-Jul-22 15:33N 40°17' E 000°59'1312.7
2016-Jul-22 14:33N 40°30' E 001°03'2612.7
2016-Jul-22 12:28N 40°56' E 001°10'11 0.4
2016-Jul-21 08:30N 41°06' E 001°14'0 0.0
2016-Jul-20 19:26N 41°06' E 001°14'13 6.9
2016-Jul-20 17:31N 40°53' E 001°09'1212.3
2016-Jul-20 16:33N 40°41' E 001°08'1111.4
2016-Jul-20 15:33N 40°31' E 001°04'1211.7
2016-Jul-20 14:33N 40°19' E 001°00'1211.6
2016-Jul-20 13:33N 40°08' E 000°57'1211.9
2016-Jul-20 12:33N 39°56' E 000°54'1312.0
2016-Jul-20 11:30N 39°44' E 000°50'3711.6
2016-Jul-20 08:19N 39°08' E 000°37'2011.5
2016-Jul-20 06:33N 38°49' E 000°29'1211.6
2016-Jul-20 05:33N 38°38' E 000°24'1211.8
2016-Jul-20 04:33N 38°28' E 000°16'1711.6
2016-Jul-20 03:07N 38°14' E 000°04'711.6
2016-Jul-20 02:29N 38°08' W 000°01'1311.7
2016-Jul-20 01:23N 37°57' W 000°10'1011.5
2016-Jul-20 00:33N 37°50' W 000°17'1211.5
2016-Jul-19 23:32N 37°40' W 000°25'1111.3
2016-Jul-19 22:33N 37°31' W 000°34'1111.5
2016-Jul-19 21:33N 37°23' W 000°44'1211.8
2016-Jul-19 20:34N 37°16' W 000°55'1212.0
2016-Jul-19 19:33N 37°08' W 001°07'1212.3
2016-Jul-19 18:33N 36°60' W 001°18'1211.8
2016-Jul-19 17:31N 36°52' W 001°30'1312.4
2016-Jul-19 16:28N 36°43' W 001°42'1112.5
2016-Jul-19 15:33N 36°36' W 001°53'16511.0
2016-Jul-19 00:33N 35°57' W 005°12'6 3.0
2016-Jul-18 22:31N 35°54' W 005°18'0 0.0
2016-Jul-18 21:31N 35°54' W 005°18'0 0.0
2016-Jul-18 20:25N 35°54' W 005°18'0 0.0
2016-Jul-18 19:31N 35°54' W 005°18'1 1.4
2016-Jul-18 18:33N 35°55' W 005°19'5 5.0
2016-Jul-18 17:33N 35°58' W 005°24'19210.6
2016-Jul-17 23:33N 36°30' W 009°18'1212.4
2016-Jul-17 22:33N 36°38' W 009°29'1212.3
2016-Jul-17 21:33N 36°48' W 009°39'1312.9
2016-Jul-17 20:33N 37°01' W 009°42'1313.0
2016-Jul-17 19:33N 37°13' W 009°46'1313.4
2016-Jul-17 18:33N 37°26' W 009°49'1313.2
2016-Jul-17 17:33N 37°39' W 009°52'1313.2
2016-Jul-17 16:33N 37°52' W 009°57'1413.6
2016-Jul-17 15:33N 38°05' W 010°01'1413.6
2016-Jul-17 14:34N 38°18' W 010°05'1413.6
2016-Jul-17 13:33N 38°32' W 010°08'1313.5
2016-Jul-17 12:34N 38°45' W 010°11'1312.9
2016-Jul-17 11:34N 38°58' W 010°11'1312.8
2016-Jul-17 10:33N 39°11' W 010°11'1313.3
2016-Jul-17 09:33N 39°24' W 010°11'1312.8
2016-Jul-17 08:33N 39°37' W 010°12'1413.1
2016-Jul-17 07:31N 39°50' W 010°12'1414.4
2016-Jul-17 06:32N 40°05' W 010°12'6913.4
2016-Jul-17 01:21N 41°14' W 010°11'36412.5
2016-Jul-15 20:21N 46°56' W 007°21'3713.2
2016-Jul-15 17:33N 47°28' W 006°55'  

Dump ship's entire track history